createdAt,value
2022-09-14T00:00:38.915Z,0.00
2022-09-14T00:01:38.959Z,0.00
2022-09-14T00:02:39.964Z,0.00
2022-09-14T00:03:38.958Z,0.00
2022-09-14T00:04:38.886Z,0.00
2022-09-14T00:05:38.884Z,0.00
2022-09-14T00:06:38.900Z,0.00
2022-09-14T00:07:38.858Z,0.00
2022-09-14T00:08:38.857Z,0.00
2022-09-14T00:09:38.839Z,0.00
2022-09-14T00:10:39.836Z,0.00
2022-09-14T00:11:38.923Z,0.00
2022-09-14T00:12:38.822Z,0.00
2022-09-14T00:13:38.884Z,0.00
2022-09-14T00:14:38.817Z,0.00
2022-09-14T00:15:38.805Z,0.00
2022-09-14T00:16:38.910Z,0.00
2022-09-14T00:17:38.787Z,0.00
2022-09-14T00:18:38.781Z,0.00
2022-09-14T00:19:38.774Z,0.00
2022-09-14T00:20:38.767Z,0.00
2022-09-14T00:21:38.798Z,0.00
2022-09-14T00:22:38.749Z,0.00
2022-09-14T00:23:38.732Z,0.00
2022-09-14T00:24:38.729Z,0.00
2022-09-14T00:25:38.721Z,0.00
2022-09-14T00:26:38.742Z,0.00
2022-09-14T00:27:38.710Z,0.00
2022-09-14T00:28:38.774Z,0.00
2022-09-14T00:29:38.704Z,0.00
2022-09-14T00:30:38.692Z,0.00
2022-09-14T00:31:38.751Z,0.00
2022-09-14T00:32:38.672Z,0.00
2022-09-14T00:33:38.665Z,0.00
2022-09-14T00:34:38.658Z,0.00
2022-09-14T00:35:38.641Z,0.00
2022-09-14T00:36:38.672Z,0.00
2022-09-14T00:37:38.634Z,0.00
2022-09-14T00:38:38.623Z,0.00
2022-09-14T00:39:38.645Z,0.00
2022-09-14T00:40:38.607Z,0.00
2022-09-14T00:41:38.606Z,0.00
2022-09-14T00:42:38.598Z,0.00
2022-09-14T00:43:38.607Z,0.00
2022-09-14T00:44:38.574Z,0.00
2022-09-14T00:45:38.613Z,0.00
2022-09-14T00:46:38.560Z,0.00
2022-09-14T00:47:38.551Z,0.00
2022-09-14T00:48:38.555Z,0.00
2022-09-14T00:49:38.562Z,0.00
2022-09-14T00:50:38.528Z,0.00
2022-09-14T00:51:38.525Z,0.00
2022-09-14T00:52:38.515Z,0.00
2022-09-14T00:53:38.504Z,0.00
2022-09-14T00:54:38.514Z,0.00
2022-09-14T00:55:38.518Z,0.00
2022-09-14T00:56:38.488Z,0.00
2022-09-14T00:57:38.461Z,0.00
2022-09-14T00:58:39.505Z,0.00
2022-09-14T00:59:38.555Z,0.00
2022-09-14T01:00:38.487Z,0.00
2022-09-14T01:01:38.522Z,0.00
2022-09-14T01:02:38.475Z,0.00
2022-09-14T01:03:38.432Z,0.00
2022-09-14T01:04:38.427Z,0.00
2022-09-14T01:05:38.446Z,0.00
2022-09-14T01:06:38.411Z,0.00
2022-09-14T01:07:38.409Z,0.00
2022-09-14T01:08:38.385Z,0.00
2022-09-14T01:09:38.424Z,0.00
2022-09-14T01:10:38.382Z,0.00
2022-09-14T01:11:38.380Z,0.00
2022-09-14T01:12:38.361Z,0.00
2022-09-14T01:13:38.372Z,0.00
2022-09-14T01:14:38.350Z,0.00
2022-09-14T01:15:38.371Z,0.00
2022-09-14T01:16:38.389Z,0.00
2022-09-14T01:17:38.326Z,0.00
2022-09-14T01:18:38.318Z,0.00
2022-09-14T01:19:38.343Z,0.00
2022-09-14T01:20:38.307Z,0.00
2022-09-14T01:21:38.312Z,0.00
2022-09-14T01:22:38.296Z,0.00
2022-09-14T01:23:38.282Z,0.00
2022-09-14T01:24:38.281Z,0.00
2022-09-14T01:25:38.297Z,0.00
2022-09-14T01:26:38.260Z,0.00
2022-09-14T01:27:38.249Z,0.00
2022-09-14T01:28:38.246Z,0.00
2022-09-14T01:29:38.270Z,0.00
2022-09-14T01:30:38.231Z,0.00
2022-09-14T01:31:38.352Z,0.00
2022-09-14T01:32:38.214Z,0.00
2022-09-14T01:33:38.211Z,0.00
2022-09-14T01:34:38.202Z,0.00
2022-09-14T01:35:38.231Z,0.00
2022-09-14T01:36:38.185Z,0.00
2022-09-14T01:37:38.188Z,0.00
2022-09-14T01:38:38.172Z,0.00
2022-09-14T01:39:38.166Z,0.00
2022-09-14T01:40:38.180Z,0.00
2022-09-14T01:41:38.142Z,0.00
2022-09-14T01:42:38.139Z,0.00
2022-09-14T01:43:38.131Z,0.00
2022-09-14T01:44:38.129Z,0.00
2022-09-14T01:45:38.160Z,0.00
2022-09-14T01:46:38.111Z,0.00
2022-09-14T01:47:38.173Z,0.00
2022-09-14T01:48:38.160Z,0.00
2022-09-14T01:49:38.109Z,0.00
2022-09-14T01:50:38.078Z,0.00
2022-09-14T01:51:38.067Z,0.00
2022-09-14T01:52:38.076Z,0.00
2022-09-14T01:53:38.049Z,0.00
2022-09-14T01:54:39.083Z,0.00
2022-09-14T01:55:38.045Z,0.00
2022-09-14T01:56:38.041Z,0.00
2022-09-14T01:57:38.029Z,0.00
2022-09-14T01:58:38.020Z,0.00
2022-09-14T01:59:38.037Z,0.00
2022-09-14T02:00:38.042Z,0.00
2022-09-14T02:01:38.071Z,0.00
2022-09-14T02:02:38.064Z,0.00
2022-09-14T02:03:38.043Z,0.00
2022-09-14T02:04:37.998Z,0.00
2022-09-14T02:05:37.966Z,0.00
2022-09-14T02:06:37.958Z,0.00
2022-09-14T02:07:37.953Z,0.00
2022-09-14T02:08:37.945Z,0.00
2022-09-14T02:09:37.967Z,0.00
2022-09-14T02:10:37.934Z,0.00
2022-09-14T02:11:37.920Z,0.00
2022-09-14T02:12:37.914Z,0.00
2022-09-14T02:13:37.905Z,0.00
2022-09-14T02:14:37.925Z,0.00
2022-09-14T02:15:37.889Z,0.00
2022-09-14T02:16:37.929Z,0.00
2022-09-14T02:17:37.880Z,0.00
2022-09-14T02:18:37.863Z,0.00
2022-09-14T02:19:37.881Z,0.00
2022-09-14T02:20:37.853Z,0.00
2022-09-14T02:21:37.841Z,0.00
2022-09-14T02:22:37.832Z,0.00
2022-09-14T02:23:37.824Z,0.00
2022-09-14T02:24:37.836Z,0.00
2022-09-14T02:25:37.808Z,0.00
2022-09-14T02:26:37.806Z,0.00
2022-09-14T02:27:37.796Z,0.00
2022-09-14T02:28:37.790Z,0.00
2022-09-14T02:29:37.804Z,0.00
2022-09-14T02:30:37.775Z,0.00
2022-09-14T02:31:37.840Z,0.00
2022-09-14T02:32:37.757Z,0.00
2022-09-14T02:33:37.755Z,0.00
2022-09-14T02:34:37.775Z,0.00
2022-09-14T02:35:37.730Z,0.00
2022-09-14T02:36:37.722Z,0.00
2022-09-14T02:37:37.717Z,0.00
2022-09-14T02:38:37.712Z,0.00
2022-09-14T02:39:37.739Z,0.00
2022-09-14T02:40:37.697Z,0.00
2022-09-14T02:41:37.688Z,0.00
2022-09-14T02:42:37.675Z,0.00
2022-09-14T02:43:37.669Z,0.00
2022-09-14T02:44:37.686Z,0.00
2022-09-14T02:45:37.653Z,0.00
2022-09-14T02:46:37.730Z,0.00
2022-09-14T02:47:37.646Z,0.00
2022-09-14T02:48:37.630Z,0.00
2022-09-14T02:49:37.649Z,0.00
2022-09-14T02:50:37.621Z,0.00
2022-09-14T02:51:37.615Z,0.00
2022-09-14T02:52:37.604Z,0.00
2022-09-14T02:53:37.599Z,0.00
2022-09-14T02:54:37.618Z,0.00
2022-09-14T02:55:37.585Z,0.00
2022-09-14T02:56:37.578Z,0.00
2022-09-14T02:57:37.565Z,0.00
2022-09-14T02:58:37.559Z,0.00
2022-09-14T02:59:37.579Z,0.00
2022-09-14T03:00:37.614Z,0.00
2022-09-14T03:01:37.570Z,0.00
2022-09-14T03:02:37.528Z,0.00
2022-09-14T03:03:37.523Z,0.00
2022-09-14T03:04:37.536Z,0.00
2022-09-14T03:05:37.505Z,0.00
2022-09-14T03:06:37.499Z,0.00
2022-09-14T03:07:37.556Z,0.00
2022-09-14T03:08:37.486Z,0.00
2022-09-14T03:09:37.501Z,0.00
2022-09-14T03:10:37.470Z,0.00
2022-09-14T03:11:37.460Z,0.00
2022-09-14T03:12:37.452Z,0.00
2022-09-14T03:13:37.442Z,0.00
2022-09-14T03:14:37.468Z,0.00
2022-09-14T03:15:37.435Z,0.00
2022-09-14T03:16:37.493Z,0.00
2022-09-14T03:17:37.417Z,0.00
2022-09-14T03:18:37.410Z,0.00
2022-09-14T03:19:37.425Z,0.00
2022-09-14T03:20:37.395Z,0.00
2022-09-14T03:21:37.386Z,0.00
2022-09-14T03:22:37.377Z,0.00
2022-09-14T03:23:37.363Z,0.00
2022-09-14T03:24:37.394Z,0.00
2022-09-14T03:25:37.352Z,0.00
2022-09-14T03:26:37.345Z,0.00
2022-09-14T03:27:37.347Z,0.00
2022-09-14T03:28:37.331Z,0.00
2022-09-14T03:29:37.348Z,0.00
2022-09-14T03:30:37.313Z,0.00
2022-09-14T03:31:37.436Z,0.00
2022-09-14T03:32:37.302Z,0.00
2022-09-14T03:33:37.323Z,0.00
2022-09-14T03:34:37.289Z,0.00
2022-09-14T03:35:37.306Z,0.00
2022-09-14T03:36:37.272Z,0.00
2022-09-14T03:37:37.269Z,0.00
2022-09-14T03:38:37.253Z,0.00
2022-09-14T03:39:37.311Z,0.00
2022-09-14T03:40:37.287Z,0.00
2022-09-14T03:41:37.233Z,0.00
2022-09-14T03:42:37.224Z,0.00
2022-09-14T03:43:37.215Z,0.00
2022-09-14T03:44:37.205Z,0.00
2022-09-14T03:45:37.220Z,0.00
2022-09-14T03:46:37.282Z,0.00
2022-09-14T03:47:37.185Z,0.00
2022-09-14T03:48:37.175Z,0.00
2022-09-14T03:49:37.163Z,0.00
2022-09-14T03:50:37.185Z,0.00
2022-09-14T03:51:37.151Z,0.00
2022-09-14T03:52:37.145Z,0.00
2022-09-14T03:53:37.136Z,0.00
2022-09-14T03:54:37.133Z,0.00
2022-09-14T03:55:37.207Z,0.00
2022-09-14T03:56:37.113Z,0.00
2022-09-14T03:57:37.109Z,0.00
2022-09-14T03:58:37.094Z,0.00
2022-09-14T03:59:41.668Z,0.00
2022-09-14T04:00:39.109Z,0.00
2022-09-14T04:01:37.106Z,0.00
2022-09-14T04:02:37.100Z,0.00
2022-09-14T04:03:37.060Z,0.00
2022-09-14T04:04:37.053Z,0.00
2022-09-14T04:05:37.074Z,0.00
2022-09-14T04:06:37.038Z,0.00
2022-09-14T04:07:37.029Z,0.00
2022-09-14T04:08:37.019Z,0.00
2022-09-14T04:09:37.007Z,0.00
2022-09-14T04:10:37.030Z,0.00
2022-09-14T04:11:36.989Z,0.00
2022-09-14T04:12:37.989Z,0.00
2022-09-14T04:13:36.983Z,0.00
2022-09-14T04:14:36.973Z,0.00
2022-09-14T04:15:36.990Z,0.00
2022-09-14T04:16:37.021Z,0.00
2022-09-14T04:17:36.947Z,0.00
2022-09-14T04:18:36.936Z,0.00
2022-09-14T04:19:36.935Z,0.00
2022-09-14T04:20:36.950Z,0.00
2022-09-14T04:21:36.914Z,0.00
2022-09-14T04:22:36.913Z,0.00
2022-09-14T04:23:51.358Z,0.00
2022-09-14T04:24:38.895Z,0.00
2022-09-14T04:25:36.911Z,0.00
2022-09-14T04:26:36.882Z,0.00
2022-09-14T04:27:36.872Z,0.00
2022-09-14T04:28:36.866Z,0.00
2022-09-14T04:29:36.860Z,0.00
2022-09-14T04:30:36.872Z,0.00
2022-09-14T04:31:36.903Z,0.00
2022-09-14T04:32:36.831Z,0.00
2022-09-14T04:33:36.824Z,0.00
2022-09-14T04:34:36.827Z,0.00
2022-09-14T04:35:36.835Z,0.00
2022-09-14T04:36:36.801Z,0.00
2022-09-14T04:37:36.793Z,0.00
2022-09-14T04:38:36.785Z,0.00
2022-09-14T04:39:36.777Z,4.00
2022-09-14T04:40:36.794Z,4.00
2022-09-14T04:41:36.770Z,4.00
2022-09-14T04:42:36.762Z,0.00
2022-09-14T04:43:36.748Z,4.00
2022-09-14T04:44:36.755Z,4.00
2022-09-14T04:45:36.766Z,4.00
2022-09-14T04:46:36.797Z,4.00
2022-09-14T04:47:36.717Z,8.00
2022-09-14T04:48:36.710Z,8.00
2022-09-14T04:49:36.700Z,8.00
2022-09-14T04:50:36.721Z,8.00
2022-09-14T04:51:36.685Z,4.00
2022-09-14T04:52:36.675Z,4.00
2022-09-14T04:53:36.673Z,8.00
2022-09-14T04:54:36.659Z,8.00
2022-09-14T04:55:36.651Z,8.00
2022-09-14T04:56:36.669Z,12.00
2022-09-14T04:57:36.634Z,12.00
2022-09-14T04:58:36.629Z,12.00
2022-09-14T04:59:36.617Z,12.00
2022-09-14T05:00:36.615Z,16.00
2022-09-14T05:01:36.853Z,16.00
2022-09-14T05:02:36.642Z,24.00
2022-09-14T05:03:36.599Z,28.00
2022-09-14T05:04:36.660Z,28.00
2022-09-14T05:05:36.577Z,36.00
2022-09-14T05:06:36.597Z,40.00
2022-09-14T05:07:36.563Z,40.00
2022-09-14T05:08:36.556Z,48.00
2022-09-14T05:09:36.553Z,52.00
2022-09-14T05:10:36.542Z,56.00
2022-09-14T05:11:36.560Z,64.00
2022-09-14T05:12:36.528Z,68.00
2022-09-14T05:13:36.508Z,76.00
2022-09-14T05:14:37.514Z,84.00
2022-09-14T05:15:36.603Z,88.00
2022-09-14T05:16:36.525Z,92.00
2022-09-14T05:17:36.489Z,96.00
2022-09-14T05:18:36.482Z,96.00
2022-09-14T05:19:36.474Z,100.00
2022-09-14T05:20:37.261Z,108.00
2022-09-14T05:21:36.485Z,112.00
2022-09-14T05:22:36.460Z,124.00
2022-09-14T05:23:36.496Z,132.00
2022-09-14T05:24:36.434Z,140.00
2022-09-14T05:25:36.427Z,148.00
2022-09-14T05:26:36.449Z,164.00
2022-09-14T05:27:36.418Z,188.00
2022-09-14T05:28:36.406Z,200.00
2022-09-14T05:29:36.399Z,208.00
2022-09-14T05:30:36.395Z,216.00
2022-09-14T05:31:36.455Z,220.00
2022-09-14T05:32:36.393Z,232.00
2022-09-14T05:33:36.373Z,240.00
2022-09-14T05:34:36.365Z,248.00
2022-09-14T05:35:36.357Z,260.00
2022-09-14T05:36:36.371Z,272.00
2022-09-14T05:37:36.339Z,284.00
2022-09-14T05:38:36.333Z,304.00
2022-09-14T05:39:36.321Z,316.00
2022-09-14T05:40:36.314Z,312.00
2022-09-14T05:41:36.331Z,312.00
2022-09-14T05:42:36.319Z,308.00
2022-09-14T05:43:36.292Z,284.00
2022-09-14T05:44:36.283Z,268.00
2022-09-14T05:45:36.277Z,264.00
2022-09-14T05:46:36.355Z,272.00
2022-09-14T05:47:39.099Z,264.00
2022-09-14T05:48:37.254Z,248.00
2022-09-14T05:49:36.249Z,232.00
2022-09-14T05:50:36.238Z,232.00
2022-09-14T05:51:36.261Z,248.00
2022-09-14T05:52:36.223Z,268.00
2022-09-14T05:53:36.221Z,296.00
2022-09-14T05:54:36.208Z,328.00
2022-09-14T05:55:36.206Z,360.00
2022-09-14T05:56:36.226Z,400.00
2022-09-14T05:57:36.191Z,432.00
2022-09-14T05:58:36.175Z,440.00
2022-09-14T05:59:36.171Z,428.00
2022-09-14T06:00:36.167Z,412.00
2022-09-14T06:01:36.242Z,388.00
2022-09-14T06:02:36.146Z,360.00
2022-09-14T06:03:36.141Z,336.00
2022-09-14T06:04:36.132Z,328.00
2022-09-14T06:05:36.212Z,328.00
2022-09-14T06:06:36.138Z,336.00
2022-09-14T06:07:36.106Z,348.00
2022-09-14T06:08:36.100Z,364.00
2022-09-14T06:09:36.091Z,396.00
2022-09-14T06:10:36.085Z,416.00
2022-09-14T06:11:36.097Z,440.00
2022-09-14T06:12:36.063Z,476.00
2022-09-14T06:13:36.059Z,524.00
2022-09-14T06:14:36.049Z,572.00
2022-09-14T06:15:36.030Z,588.00
2022-09-14T06:16:37.060Z,596.00
2022-09-14T06:17:36.029Z,600.00
2022-09-14T06:18:36.019Z,612.00
2022-09-14T06:19:36.013Z,620.00
2022-09-14T06:20:36.001Z,616.00
2022-09-14T06:21:36.049Z,620.00
2022-09-14T06:22:35.989Z,632.00
2022-09-14T06:23:35.976Z,640.00
2022-09-14T06:24:35.972Z,648.00
2022-09-14T06:25:35.965Z,656.00
2022-09-14T06:26:35.986Z,644.00
2022-09-14T06:27:35.949Z,640.00
2022-09-14T06:28:35.943Z,632.00
2022-09-14T06:29:35.938Z,636.00
2022-09-14T06:30:35.938Z,668.00
2022-09-14T06:31:35.924Z,700.00
2022-09-14T06:32:35.935Z,744.00
2022-09-14T06:33:35.909Z,792.00
2022-09-14T06:34:35.902Z,824.00
2022-09-14T06:35:35.954Z,848.00
2022-09-14T06:36:35.925Z,852.00
2022-09-14T06:37:35.900Z,844.00
2022-09-14T06:38:35.866Z,816.00
2022-09-14T06:39:35.864Z,788.00
2022-09-14T06:40:35.874Z,784.00
2022-09-14T06:41:35.875Z,788.00
2022-09-14T06:42:35.866Z,800.00
2022-09-14T06:43:35.837Z,808.00
2022-09-14T06:44:35.830Z,808.00
2022-09-14T06:45:35.819Z,812.00
2022-09-14T06:46:35.814Z,816.00
2022-09-14T06:47:35.827Z,812.00
2022-09-14T06:48:35.796Z,808.00
2022-09-14T06:49:35.784Z,808.00
2022-09-14T06:50:35.774Z,808.00
2022-09-14T06:51:36.774Z,800.00
2022-09-14T06:52:35.790Z,788.00
2022-09-14T06:53:35.757Z,780.00
2022-09-14T06:54:35.748Z,784.00
2022-09-14T06:55:35.744Z,792.00
2022-09-14T06:56:35.755Z,796.00
2022-09-14T06:57:35.720Z,824.00
2022-09-14T06:58:36.719Z,856.00
2022-09-14T06:59:35.711Z,880.00
2022-09-14T07:00:35.710Z,884.00
2022-09-14T07:01:35.716Z,892.00
2022-09-14T07:02:35.747Z,892.00
2022-09-14T07:03:35.682Z,876.00
2022-09-14T07:04:35.673Z,868.00
2022-09-14T07:05:35.662Z,904.00
2022-09-14T07:06:35.682Z,940.00
2022-09-14T07:07:35.644Z,968.00
2022-09-14T07:08:35.643Z,1004.00
2022-09-14T07:09:35.627Z,1024.00
2022-09-14T07:10:35.618Z,1044.00
2022-09-14T07:11:35.643Z,1052.00
2022-09-14T07:12:35.605Z,1068.00
2022-09-14T07:13:35.601Z,1088.00
2022-09-14T07:14:35.586Z,1092.00
2022-09-14T07:15:35.584Z,1076.00
2022-09-14T07:16:35.598Z,1068.00
2022-09-14T07:17:35.564Z,1080.00
2022-09-14T07:18:35.559Z,1104.00
2022-09-14T07:19:35.549Z,1144.00
2022-09-14T07:20:35.546Z,1204.00
2022-09-14T07:21:35.557Z,1244.00
2022-09-14T07:22:35.527Z,1296.00
2022-09-14T07:23:35.516Z,1380.00
2022-09-14T07:24:35.511Z,1432.00
2022-09-14T07:25:35.503Z,1468.00
2022-09-14T07:26:35.521Z,1492.00
2022-09-14T07:27:35.487Z,1516.00
2022-09-14T07:28:35.478Z,1560.00
2022-09-14T07:29:35.467Z,1572.00
2022-09-14T07:30:35.483Z,1608.00
2022-09-14T07:31:35.479Z,1604.00
2022-09-14T07:32:35.443Z,1604.00
2022-09-14T07:33:35.440Z,1584.00
2022-09-14T07:34:35.433Z,1496.00
2022-09-14T07:35:35.446Z,1408.00
2022-09-14T07:36:35.467Z,1380.00
2022-09-14T07:37:35.407Z,1400.00
2022-09-14T07:38:51.594Z,1448.00
2022-09-14T07:39:37.394Z,1488.00
2022-09-14T07:40:35.383Z,1548.00
2022-09-14T07:41:35.397Z,1540.00
2022-09-14T07:42:35.368Z,1488.00
2022-09-14T07:43:35.365Z,1496.00
2022-09-14T07:44:35.357Z,1524.00
2022-09-14T07:45:35.400Z,1532.00
2022-09-14T07:46:35.448Z,1560.00
2022-09-14T07:47:35.332Z,1644.00
2022-09-14T07:48:35.350Z,1728.00
2022-09-14T07:49:35.315Z,1812.00
2022-09-14T07:50:35.308Z,1892.00
2022-09-14T07:51:35.327Z,1888.00
2022-09-14T07:52:38.569Z,1840.00
2022-09-14T07:53:36.288Z,1736.00
2022-09-14T07:54:35.285Z,1648.00
2022-09-14T07:55:35.271Z,1668.00
2022-09-14T07:56:35.386Z,1744.00
2022-09-14T07:57:55.049Z,1816.00
2022-09-14T07:58:37.246Z,1872.00
2022-09-14T07:59:36.960Z,1892.00
2022-09-14T08:00:36.226Z,1868.00
2022-09-14T08:01:35.302Z,1852.00
2022-09-14T08:02:35.275Z,1848.00
2022-09-14T08:03:35.206Z,1816.00
2022-09-14T08:04:35.196Z,1764.00
2022-09-14T08:05:35.191Z,1764.00
2022-09-14T08:06:35.210Z,1772.00
2022-09-14T08:07:35.177Z,1768.00
2022-09-14T08:08:35.167Z,1748.00
2022-09-14T08:09:35.161Z,1748.00
2022-09-14T08:10:35.155Z,1776.00
2022-09-14T08:11:35.172Z,1768.00
2022-09-14T08:12:35.141Z,1736.00
2022-09-14T08:13:35.128Z,1688.00
2022-09-14T08:14:35.120Z,1692.00
2022-09-14T08:15:35.119Z,1744.00
2022-09-14T08:16:35.204Z,1804.00
2022-09-14T08:17:35.097Z,1900.00
2022-09-14T08:18:35.096Z,2020.00
2022-09-14T08:19:35.085Z,2156.00
2022-09-14T08:20:35.077Z,2288.00
2022-09-14T08:21:35.093Z,2392.00
2022-09-14T08:22:35.062Z,2492.00
2022-09-14T08:23:35.054Z,2508.00
2022-09-14T08:24:35.048Z,2436.00
2022-09-14T08:25:35.039Z,2340.00
2022-09-14T08:26:35.020Z,2284.00
2022-09-14T08:27:36.052Z,2292.00
2022-09-14T08:28:35.017Z,2340.00
2022-09-14T08:29:35.024Z,2312.00
2022-09-14T08:30:35.005Z,2308.00
2022-09-14T08:31:35.045Z,2280.00
2022-09-14T08:32:35.016Z,2312.00
2022-09-14T08:33:34.988Z,2536.00
2022-09-14T08:34:34.973Z,2708.00
2022-09-14T08:35:56.375Z,2864.00
2022-09-14T08:36:36.961Z,3104.00
2022-09-14T08:37:34.976Z,3332.00
2022-09-14T08:38:34.973Z,3484.00
2022-09-14T08:39:34.952Z,3456.00
2022-09-14T08:40:34.992Z,3608.00
2022-09-14T08:41:34.927Z,3876.00
2022-09-14T08:42:34.918Z,4092.00
2022-09-14T08:43:34.932Z,4244.00
2022-09-14T08:44:34.899Z,4368.00
2022-09-14T08:45:34.965Z,4456.00
2022-09-14T08:46:34.885Z,4476.00
2022-09-14T08:47:34.886Z,4404.00
2022-09-14T08:48:34.896Z,4336.00
2022-09-14T08:49:34.865Z,4288.00
2022-09-14T08:50:38.749Z,4268.00
2022-09-14T08:51:35.859Z,4344.00
2022-09-14T08:52:34.843Z,4488.00
2022-09-14T08:53:34.859Z,4640.00
2022-09-14T08:54:34.826Z,4768.00
2022-09-14T08:55:34.844Z,4872.00
2022-09-14T08:56:34.853Z,4936.00
2022-09-14T08:57:34.801Z,4948.00
2022-09-14T08:58:40.595Z,5000.00
2022-09-14T08:59:35.875Z,5080.00
2022-09-14T09:00:34.840Z,5156.00
2022-09-14T09:01:34.777Z,5172.00
2022-09-14T09:02:34.769Z,5116.00
2022-09-14T09:03:34.849Z,4892.00
2022-09-14T09:04:34.752Z,4504.00
2022-09-14T09:05:34.742Z,4072.00
2022-09-14T09:06:34.740Z,3668.00
2022-09-14T09:07:34.726Z,3300.00
2022-09-14T09:08:34.747Z,2948.00
2022-09-14T09:09:34.731Z,2660.00
2022-09-14T09:10:34.710Z,2484.00
2022-09-14T09:11:34.701Z,2440.00
2022-09-14T09:12:34.694Z,2540.00
2022-09-14T09:13:34.703Z,2676.00
2022-09-14T09:14:34.667Z,2804.00
2022-09-14T09:15:34.666Z,2992.00
2022-09-14T09:16:34.729Z,3328.00
2022-09-14T09:17:34.652Z,3696.00
2022-09-14T09:18:34.645Z,3968.00
2022-09-14T09:19:34.665Z,4144.00
2022-09-14T09:20:34.629Z,4192.00
2022-09-14T09:21:34.612Z,4252.00
2022-09-14T09:22:34.605Z,4416.00
2022-09-14T09:23:34.625Z,4680.00
2022-09-14T09:24:37.238Z,4932.00
2022-09-14T09:25:35.584Z,5160.00
2022-09-14T09:26:34.582Z,5256.00
2022-09-14T09:27:34.576Z,5160.00
2022-09-14T09:28:34.594Z,4960.00
2022-09-14T09:29:34.553Z,4804.00
2022-09-14T09:30:34.551Z,4640.00
2022-09-14T09:31:34.579Z,4456.00
2022-09-14T09:32:34.537Z,4296.00
2022-09-14T09:33:34.564Z,4196.00
2022-09-14T09:34:34.518Z,4040.00
2022-09-14T09:35:34.509Z,3852.00
2022-09-14T09:36:34.501Z,3772.00
2022-09-14T09:37:34.496Z,3752.00
2022-09-14T09:38:34.523Z,3788.00
2022-09-14T09:39:34.477Z,3932.00
2022-09-14T09:40:34.538Z,4100.00
2022-09-14T09:41:34.463Z,4160.00
2022-09-14T09:42:34.457Z,4136.00
2022-09-14T09:43:49.022Z,4084.00
2022-09-14T09:44:36.448Z,3968.00
2022-09-14T09:45:34.433Z,3900.00
2022-09-14T09:46:34.538Z,3848.00
2022-09-14T09:47:34.480Z,3872.00
2022-09-14T09:48:34.441Z,3976.00
2022-09-14T09:49:34.424Z,4128.00
2022-09-14T09:50:34.394Z,4404.00
2022-09-14T09:51:34.379Z,4676.00
2022-09-14T09:52:34.373Z,5060.00
2022-09-14T09:53:34.422Z,5380.00
2022-09-14T09:54:34.363Z,5580.00
2022-09-14T09:55:34.351Z,5864.00
2022-09-14T09:56:34.332Z,6188.00
2022-09-14T09:57:35.341Z,6396.00
2022-09-14T09:58:34.323Z,6552.00
2022-09-14T09:59:34.345Z,6652.00
2022-09-14T10:00:34.385Z,6584.00
2022-09-14T10:01:34.428Z,6460.00
2022-09-14T10:02:34.350Z,6580.00
2022-09-14T10:03:34.332Z,6756.00
2022-09-14T10:04:34.286Z,6744.00
2022-09-14T10:05:34.275Z,6528.00
2022-09-14T10:06:34.262Z,6280.00
2022-09-14T10:07:34.261Z,6252.00
2022-09-14T10:08:34.297Z,6244.00
2022-09-14T10:09:34.245Z,6356.00
2022-09-14T10:10:34.240Z,6484.00
2022-09-14T10:11:35.054Z,6416.00
2022-09-14T10:12:34.220Z,6376.00
2022-09-14T10:13:37.799Z,6336.00
2022-09-14T10:14:35.202Z,6344.00
2022-09-14T10:15:34.197Z,6284.00
2022-09-14T10:16:34.234Z,6268.00
2022-09-14T10:17:34.189Z,6580.00
2022-09-14T10:18:34.173Z,6816.00
2022-09-14T10:19:34.194Z,6892.00
2022-09-14T10:20:34.156Z,6820.00
2022-09-14T10:21:34.161Z,6656.00
2022-09-14T10:22:34.184Z,6468.00
2022-09-14T10:23:34.154Z,6148.00
2022-09-14T10:24:34.133Z,5948.00
2022-09-14T10:25:34.123Z,5844.00
2022-09-14T10:26:34.110Z,5844.00
2022-09-14T10:27:37.822Z,5924.00
2022-09-14T10:28:35.114Z,6088.00
2022-09-14T10:29:34.083Z,6244.00
2022-09-14T10:30:34.076Z,6400.00
2022-09-14T10:31:34.143Z,6468.00
2022-09-14T10:32:34.069Z,6620.00
2022-09-14T10:33:34.075Z,6776.00
2022-09-14T10:34:34.039Z,6744.00
2022-09-14T10:35:34.045Z,6572.00
2022-09-14T10:36:34.031Z,6276.00
2022-09-14T10:37:34.026Z,5888.00
2022-09-14T10:38:34.039Z,5472.00
2022-09-14T10:39:34.009Z,5060.00
2022-09-14T10:40:34.100Z,4896.00
2022-09-14T10:41:33.988Z,4628.00
2022-09-14T10:42:33.980Z,4396.00
2022-09-14T10:43:33.995Z,4116.00
2022-09-14T10:44:33.959Z,3792.00
2022-09-14T10:45:33.961Z,3420.00
2022-09-14T10:46:34.028Z,2916.00
2022-09-14T10:47:33.941Z,2424.00
2022-09-14T10:48:33.962Z,2000.00
2022-09-14T10:49:33.922Z,1672.00
2022-09-14T10:50:33.920Z,1552.00
2022-09-14T10:51:33.918Z,1740.00
2022-09-14T10:52:33.911Z,2048.00
2022-09-14T10:53:33.928Z,2464.00
2022-09-14T10:54:33.894Z,3016.00
2022-09-14T10:55:33.888Z,3528.00
2022-09-14T10:56:33.877Z,3616.00
2022-09-14T10:57:33.871Z,3768.00
2022-09-14T10:58:33.891Z,4292.00
2022-09-14T10:59:33.859Z,5052.00
2022-09-14T11:00:33.846Z,5596.00
2022-09-14T11:01:33.867Z,5396.00
2022-09-14T11:02:33.933Z,4908.00
2022-09-14T11:03:33.855Z,4320.00
2022-09-14T11:04:33.814Z,3832.00
2022-09-14T11:05:33.797Z,3548.00
2022-09-14T11:06:33.794Z,3392.00
2022-09-14T11:07:33.787Z,3332.00
2022-09-14T11:08:33.798Z,3360.00
2022-09-14T11:09:33.769Z,3332.00
2022-09-14T11:10:33.766Z,3204.00
2022-09-14T11:11:33.748Z,3060.00
2022-09-14T11:12:34.747Z,2988.00
2022-09-14T11:13:33.765Z,3084.00
2022-09-14T11:14:33.732Z,3108.00
2022-09-14T11:15:33.758Z,3148.00
2022-09-14T11:16:33.712Z,3236.00
2022-09-14T11:17:33.720Z,3256.00
2022-09-14T11:18:33.726Z,3296.00
2022-09-14T11:19:33.698Z,3460.00
2022-09-14T11:20:33.693Z,3708.00
2022-09-14T11:21:33.678Z,3940.00
2022-09-14T11:22:33.666Z,4228.00
2022-09-14T11:23:33.683Z,4680.00
2022-09-14T11:24:33.650Z,5108.00
2022-09-14T11:25:33.644Z,5424.00
2022-09-14T11:26:33.632Z,5700.00
2022-09-14T11:27:33.636Z,5844.00
2022-09-14T11:28:33.649Z,5920.00
2022-09-14T11:29:33.609Z,5768.00
2022-09-14T11:30:33.605Z,5500.00
2022-09-14T11:31:33.706Z,5124.00
2022-09-14T11:32:33.594Z,4636.00
2022-09-14T11:33:33.612Z,4272.00
2022-09-14T11:34:33.574Z,4116.00
2022-09-14T11:35:33.565Z,4176.00
2022-09-14T11:36:33.556Z,4416.00
2022-09-14T11:37:33.547Z,4780.00
2022-09-14T11:38:33.542Z,5140.00
2022-09-14T11:39:33.558Z,5232.00
2022-09-14T11:40:33.605Z,5180.00
2022-09-14T11:41:33.519Z,5320.00
2022-09-14T11:42:33.511Z,5748.00
2022-09-14T11:43:33.527Z,6604.00
2022-09-14T11:44:33.493Z,7352.00
2022-09-14T11:45:33.499Z,7768.00
2022-09-14T11:46:33.541Z,8172.00
2022-09-14T11:47:33.470Z,8760.00
2022-09-14T11:48:48.745Z,9188.00
2022-09-14T11:49:35.466Z,9196.00
2022-09-14T11:50:33.450Z,9076.00
2022-09-14T11:51:33.437Z,8632.00
2022-09-14T11:52:33.437Z,7928.00
2022-09-14T11:53:33.452Z,7196.00
2022-09-14T11:54:33.417Z,6584.00
2022-09-14T11:55:33.424Z,6104.00
2022-09-14T11:56:33.402Z,5688.00
2022-09-14T11:57:33.415Z,5252.00
2022-09-14T11:58:33.414Z,4736.00
2022-09-14T11:59:33.383Z,4084.00
2022-09-14T12:00:33.375Z,3544.00
2022-09-14T12:01:33.358Z,3348.00
2022-09-14T12:02:33.392Z,3308.00
2022-09-14T12:03:33.460Z,3248.00
2022-09-14T12:04:33.347Z,3116.00
2022-09-14T12:05:33.342Z,2964.00
2022-09-14T12:06:33.330Z,2728.00
2022-09-14T12:07:33.318Z,2496.00
2022-09-14T12:08:33.331Z,2336.00
2022-09-14T12:09:33.308Z,2196.00
2022-09-14T12:10:33.305Z,2012.00
2022-09-14T12:11:33.283Z,1864.00
2022-09-14T12:12:33.289Z,1868.00
2022-09-14T12:13:33.296Z,1956.00
2022-09-14T12:14:33.259Z,2072.00
2022-09-14T12:15:33.346Z,2176.00
2022-09-14T12:16:34.753Z,2180.00
2022-09-14T12:17:41.612Z,2192.00
2022-09-14T12:18:35.257Z,2248.00
2022-09-14T12:19:33.219Z,2308.00
2022-09-14T12:20:33.214Z,2256.00
2022-09-14T12:21:33.201Z,2180.00
2022-09-14T12:22:33.195Z,2084.00
2022-09-14T12:23:33.227Z,2064.00
2022-09-14T12:24:33.236Z,2044.00
2022-09-14T12:25:33.172Z,1964.00
2022-09-14T12:26:33.168Z,1920.00
2022-09-14T12:27:33.171Z,1820.00
2022-09-14T12:28:33.180Z,1748.00
2022-09-14T12:29:33.154Z,1732.00
2022-09-14T12:30:35.946Z,1760.00
2022-09-14T12:31:34.175Z,1852.00
2022-09-14T12:32:33.117Z,1976.00
2022-09-14T12:33:33.119Z,2064.00
2022-09-14T12:34:33.165Z,2076.00
2022-09-14T12:35:33.095Z,2060.00
2022-09-14T12:36:33.087Z,2080.00
2022-09-14T12:37:33.077Z,2036.00